createdAt,value
2023-04-11T00:01:46.907Z,5.43
2023-04-11T00:04:15.226Z,2.95
2023-04-11T00:06:43.433Z,5.10
2023-04-11T00:09:13.008Z,1.52
2023-04-11T00:11:41.095Z,4.70
2023-04-11T00:14:12.726Z,3.45
2023-04-11T00:16:41.528Z,3.25
2023-04-11T00:19:09.974Z,2.88
2023-04-11T00:21:40.184Z,2.28
2023-04-11T00:24:09.189Z,1.75
2023-04-11T00:26:37.340Z,3.20
2023-04-11T00:29:05.409Z,2.20
2023-04-11T00:31:34.912Z,2.72
2023-04-11T00:34:03.306Z,3.10
2023-04-11T00:36:31.963Z,1.95
2023-04-11T00:39:01.245Z,2.08
2023-04-11T00:41:29.429Z,2.78
2023-04-11T00:43:57.845Z,3.88
2023-04-11T00:46:26.441Z,2.25
2023-04-11T00:48:56.317Z,2.58
2023-04-11T00:51:24.749Z,4.25
2023-04-11T00:53:52.877Z,5.82
2023-04-11T00:56:21.001Z,4.35
2023-04-11T00:58:50.003Z,2.63
2023-04-11T01:01:20.085Z,5.05
2023-04-11T01:03:48.382Z,4.18
2023-04-11T01:06:20.742Z,4.88
2023-04-11T01:08:49.214Z,7.53
2023-04-11T01:11:20.109Z,7.38
2023-04-11T01:13:48.310Z,4.88
2023-04-11T01:16:16.451Z,3.55
2023-04-11T01:18:44.524Z,2.50
2023-04-11T01:21:13.325Z,5.78
2023-04-11T01:23:42.954Z,4.85
2023-04-11T01:26:11.569Z,4.25
2023-04-11T01:28:39.645Z,7.15
2023-04-11T01:31:08.342Z,7.30
2023-04-11T01:33:36.864Z,11.88
2023-04-11T01:36:05.595Z,4.72
2023-04-11T01:38:33.725Z,3.40
2023-04-11T01:41:04.008Z,5.40
2023-04-11T01:43:32.140Z,9.27
2023-04-11T01:46:00.632Z,7.68
2023-04-11T01:48:29.148Z,6.00
2023-04-11T01:50:57.293Z,6.53
2023-04-11T01:53:25.363Z,6.75
2023-04-11T01:55:53.484Z,7.68
2023-04-11T01:58:22.930Z,12.18
2023-04-11T02:00:51.022Z,9.50
2023-04-11T02:03:21.037Z,6.97
2023-04-11T02:05:49.440Z,10.63
2023-04-11T02:08:17.535Z,13.68
2023-04-11T02:10:45.609Z,7.75
2023-04-11T02:13:13.743Z,9.75
2023-04-11T02:15:43.330Z,11.18
2023-04-11T02:18:11.527Z,15.40
2023-04-11T02:20:40.529Z,9.13
2023-04-11T02:23:08.604Z,11.30
2023-04-11T02:25:37.128Z,11.88
2023-04-11T02:28:07.366Z,12.65
2023-04-11T02:30:36.355Z,12.38
2023-04-11T02:33:05.913Z,19.05
2023-04-11T02:35:34.205Z,9.20
2023-04-11T02:38:02.335Z,11.95
2023-04-11T02:40:30.643Z,11.48
2023-04-11T02:42:58.702Z,14.05
2023-04-11T02:45:26.847Z,20.10
2023-04-11T02:47:54.953Z,10.07
2023-04-11T02:50:26.099Z,12.88
2023-04-11T02:52:54.173Z,17.08
2023-04-11T02:55:24.199Z,15.70
2023-04-11T02:57:52.439Z,8.43
2023-04-11T03:00:21.474Z,18.50
2023-04-11T03:02:50.167Z,14.45
2023-04-11T03:05:18.814Z,10.55
2023-04-11T03:07:48.231Z,14.95
2023-04-11T03:10:16.435Z,14.98
2023-04-11T03:12:44.496Z,10.82
2023-04-11T03:15:15.426Z,15.45
2023-04-11T03:17:43.826Z,15.82
2023-04-11T03:20:13.691Z,17.98
2023-04-11T03:22:41.826Z,15.20
2023-04-11T03:25:11.592Z,23.15
2023-04-11T03:27:39.970Z,17.70
2023-04-11T03:30:09.438Z,13.30
2023-04-11T03:32:37.728Z,9.00
2023-04-11T03:35:07.245Z,7.05
2023-04-11T03:37:35.362Z,13.95
2023-04-11T03:40:03.874Z,12.43
2023-04-11T03:42:33.331Z,20.38
2023-04-11T03:45:01.524Z,13.77
2023-04-11T03:47:29.661Z,25.33
2023-04-11T03:49:57.820Z,21.20
2023-04-11T03:52:25.902Z,21.30
2023-04-11T03:54:53.962Z,18.00
2023-04-11T03:57:22.017Z,16.45
2023-04-11T03:59:52.044Z,18.52
2023-04-11T04:02:20.248Z,19.38
2023-04-11T04:04:55.022Z,16.55
2023-04-11T04:07:23.992Z,21.35
2023-04-11T04:09:52.518Z,20.55
2023-04-11T04:12:21.263Z,22.35
2023-04-11T04:14:50.939Z,19.88
2023-04-11T04:17:19.044Z,23.13
2023-04-11T04:19:47.209Z,25.77
2023-04-11T04:22:17.821Z,22.00
2023-04-11T04:24:47.651Z,24.95
2023-04-11T04:27:18.174Z,30.95
2023-04-11T04:29:55.394Z,17.88
2023-04-11T04:32:33.458Z,22.00
2023-04-11T04:35:03.098Z,16.00
2023-04-11T04:37:31.218Z,13.65
2023-04-11T04:40:05.786Z,28.95
2023-04-11T04:42:34.429Z,27.65
2023-04-11T04:45:02.533Z,23.52
2023-04-11T04:47:32.401Z,30.48
2023-04-11T04:50:02.023Z,23.65
2023-04-11T04:52:30.656Z,19.17
2023-04-11T04:54:59.213Z,28.95
2023-04-11T04:57:27.701Z,25.40
2023-04-11T04:59:56.040Z,29.08
2023-04-11T05:02:25.459Z,20.38
2023-04-11T05:04:54.534Z,17.95
2023-04-11T05:07:24.041Z,22.27
2023-04-11T05:09:52.106Z,21.98
2023-04-11T05:12:26.368Z,18.48
2023-04-11T05:14:56.622Z,24.23
2023-04-11T05:17:26.254Z,20.23
2023-04-11T05:19:55.502Z,21.17
2023-04-11T05:22:25.008Z,21.45
2023-04-11T05:24:53.070Z,25.98
2023-04-11T05:27:21.162Z,21.35
2023-04-11T05:29:49.260Z,23.88
2023-04-11T05:32:17.416Z,27.35
2023-04-11T05:34:54.242Z,24.25
2023-04-11T05:37:26.042Z,19.63
2023-04-11T05:39:54.913Z,28.13
2023-04-11T05:42:22.953Z,20.65
2023-04-11T05:44:51.024Z,22.58
2023-04-11T05:47:19.127Z,28.48
2023-04-11T05:49:48.654Z,23.90
2023-04-11T05:52:16.801Z,23.98
2023-04-11T05:54:46.435Z,28.15
2023-04-11T05:57:14.638Z,27.10
2023-04-11T05:59:42.885Z,27.92
2023-04-11T06:02:11.747Z,21.25
2023-04-11T06:04:40.393Z,20.15
2023-04-11T06:07:08.612Z,21.15
2023-04-11T06:09:36.761Z,30.23
2023-04-11T06:12:06.644Z,26.33
2023-04-11T06:14:34.990Z,25.90
2023-04-11T06:17:03.159Z,25.60
2023-04-11T06:19:31.212Z,23.15
2023-04-11T06:21:59.502Z,15.20
2023-04-11T06:24:36.512Z,27.35
2023-04-11T06:27:06.261Z,19.08
2023-04-11T06:29:34.338Z,19.17
2023-04-11T06:32:02.926Z,26.98
2023-04-11T06:34:31.186Z,20.70
2023-04-11T06:37:00.357Z,22.98
2023-04-11T06:39:28.531Z,17.10
2023-04-11T06:41:56.641Z,17.58
2023-04-11T06:44:26.318Z,22.48
2023-04-11T06:46:54.696Z,18.77
2023-04-11T06:49:25.733Z,27.77
2023-04-11T06:51:54.733Z,26.30
2023-04-11T06:54:23.724Z,16.95
2023-04-11T06:56:51.873Z,19.60
2023-04-11T06:59:20.745Z,16.35
2023-04-11T07:01:50.796Z,24.33
2023-04-11T07:04:18.990Z,18.50
2023-04-11T07:06:47.234Z,13.95
2023-04-11T07:09:15.580Z,14.23
2023-04-11T07:11:43.690Z,17.73
2023-04-11T07:14:11.767Z,16.40
2023-04-11T07:16:39.976Z,13.60
2023-04-11T07:19:09.562Z,16.23
2023-04-11T07:21:38.370Z,14.05
2023-04-11T07:24:06.907Z,16.10
2023-04-11T07:26:38.505Z,10.32
2023-04-11T07:29:10.380Z,25.15
2023-04-11T07:34:09.843Z,19.42
2023-04-11T07:36:37.942Z,13.70
2023-04-11T07:39:09.285Z,9.85
2023-04-11T07:41:37.705Z,15.70
2023-04-11T07:44:07.557Z,21.00
2023-04-11T07:46:36.127Z,11.93
2023-04-11T07:49:04.238Z,14.00
2023-04-11T07:51:33.745Z,20.10
2023-04-11T07:54:01.888Z,15.18
2023-04-11T07:56:29.979Z,24.02
2023-04-11T07:58:58.607Z,15.23
2023-04-11T08:01:27.488Z,20.20
2023-04-11T08:03:56.464Z,26.25
2023-04-11T08:06:24.906Z,21.63
2023-04-11T08:08:54.345Z,15.20
2023-04-11T08:11:22.447Z,16.80
2023-04-11T08:13:50.814Z,15.80
2023-04-11T08:16:19.110Z,17.40
2023-04-11T08:18:48.095Z,12.60
2023-04-11T08:21:16.263Z,12.48
2023-04-11T08:23:44.321Z,11.13
2023-04-11T08:26:14.100Z,16.23
2023-04-11T08:28:43.465Z,16.80
2023-04-11T08:31:13.201Z,9.70
2023-04-11T08:33:42.312Z,16.83
2023-04-11T08:36:11.342Z,10.75
2023-04-11T08:38:40.380Z,11.27
2023-04-11T08:41:08.841Z,12.90
2023-04-11T08:43:39.993Z,15.30
2023-04-11T08:46:09.199Z,17.30
2023-04-11T08:48:37.277Z,10.57
2023-04-11T08:51:05.734Z,20.27
2023-04-11T08:53:37.409Z,14.32
2023-04-11T08:56:06.455Z,10.38
2023-04-11T08:58:34.550Z,16.50
2023-04-11T09:01:26.534Z,10.15
2023-04-11T09:03:54.755Z,14.40
2023-04-11T09:06:23.122Z,9.45
2023-04-11T09:08:51.299Z,18.55
2023-04-11T09:11:19.703Z,12.93
2023-04-11T09:13:48.624Z,12.77
2023-04-11T09:16:18.134Z,14.35
2023-04-11T09:18:47.119Z,9.73
2023-04-11T09:21:17.505Z,9.05
2023-04-11T09:23:45.654Z,12.88
2023-04-11T09:26:14.446Z,10.02
2023-04-11T09:28:43.295Z,12.98
2023-04-11T09:31:13.056Z,9.23
2023-04-11T09:33:54.885Z,9.68
2023-04-11T09:36:25.438Z,15.57
2023-04-11T09:38:53.921Z,15.30
2023-04-11T09:41:32.163Z,7.53
2023-04-11T09:44:00.707Z,13.52
2023-04-11T09:46:28.863Z,14.10
2023-04-11T09:48:58.376Z,8.95
2023-04-11T09:53:59.000Z,13.30
2023-04-11T09:56:27.803Z,8.50
2023-04-11T09:58:56.521Z,11.93
2023-04-11T10:01:25.503Z,11.75
2023-04-11T10:03:54.150Z,13.30
2023-04-11T10:06:33.704Z,10.63
2023-04-11T10:09:08.387Z,13.77
2023-04-11T10:11:36.956Z,14.80
2023-04-11T10:14:05.470Z,8.98
2023-04-11T10:16:34.627Z,12.40
2023-04-11T10:19:25.195Z,7.72
2023-04-11T10:21:54.695Z,17.67
2023-04-11T10:24:23.272Z,21.13
2023-04-11T10:26:53.551Z,10.68
2023-04-11T10:29:51.599Z,13.45
2023-04-11T10:32:24.758Z,11.20
2023-04-11T10:35:32.718Z,15.10
2023-04-11T10:38:02.242Z,17.77
2023-04-11T10:40:30.333Z,7.95
2023-04-11T10:42:58.547Z,8.68
2023-04-11T10:45:28.116Z,9.70
2023-04-11T10:48:07.656Z,9.52
2023-04-11T10:50:43.878Z,9.13
2023-04-11T10:53:40.603Z,4.38
2023-04-11T10:56:09.618Z,14.93
2023-04-11T10:58:39.543Z,9.55
2023-04-11T11:01:31.287Z,9.90
2023-04-11T11:04:01.091Z,8.53
2023-04-11T11:06:29.537Z,12.88
2023-04-11T11:08:59.661Z,10.52
2023-04-11T11:11:27.770Z,8.38
2023-04-11T11:13:57.089Z,8.07
2023-04-11T11:16:26.878Z,5.82
2023-04-11T11:18:56.376Z,8.88
2023-04-11T11:21:28.699Z,11.38
2023-04-11T11:23:59.699Z,15.00
2023-04-11T11:26:38.228Z,6.65
2023-04-11T11:29:06.362Z,11.82
2023-04-11T11:31:39.432Z,8.85
2023-04-11T11:36:42.239Z,7.95
2023-04-11T11:39:12.499Z,10.35
2023-04-11T11:41:40.736Z,7.22
2023-04-11T11:44:08.850Z,13.88
2023-04-11T11:46:37.124Z,12.20
2023-04-11T11:49:09.155Z,8.68
2023-04-11T11:51:44.069Z,8.38
2023-04-11T11:54:13.953Z,12.02
2023-04-11T11:56:42.425Z,11.80
2023-04-11T11:59:10.963Z,8.43
2023-04-11T12:01:42.454Z,7.38
2023-04-11T12:04:13.103Z,10.30
2023-04-11T12:06:41.481Z,10.63
2023-04-11T12:09:10.509Z,6.93
2023-04-11T12:11:41.255Z,9.30
2023-04-11T12:14:09.973Z,9.45
2023-04-11T12:16:38.885Z,6.40
2023-04-11T12:19:06.977Z,8.73
2023-04-11T12:21:35.303Z,6.97
2023-04-11T12:24:03.708Z,7.45
2023-04-11T12:26:31.880Z,8.35
2023-04-11T12:29:03.228Z,6.55
2023-04-11T12:31:31.720Z,7.80
2023-04-11T12:33:59.817Z,6.70
2023-04-11T12:36:27.892Z,5.82
2023-04-11T12:38:56.171Z,7.38
2023-04-11T12:41:32.293Z,10.15
2023-04-11T12:44:03.994Z,8.57
2023-04-11T12:46:33.737Z,5.03
2023-04-11T12:49:01.861Z,7.53
2023-04-11T12:51:29.995Z,6.57
2023-04-11T12:53:58.491Z,11.15
2023-04-11T12:56:27.004Z,13.57
2023-04-11T12:58:55.387Z,7.35
2023-04-11T13:01:25.063Z,8.32
2023-04-11T13:03:53.437Z,8.77
2023-04-11T13:06:23.156Z,13.32
2023-04-11T13:08:51.498Z,10.90
2023-04-11T13:11:19.596Z,10.90
2023-04-11T13:13:48.368Z,4.85
2023-04-11T13:16:16.660Z,9.88
2023-04-11T13:18:46.155Z,8.30
2023-04-11T13:21:14.238Z,11.05
2023-04-11T13:23:42.335Z,8.32
2023-04-11T13:26:10.435Z,8.65
2023-04-11T13:28:39.005Z,9.88
2023-04-11T13:31:10.457Z,5.65
2023-04-11T13:33:40.461Z,8.35
2023-04-11T13:36:11.558Z,7.82
2023-04-11T13:38:39.614Z,5.78
2023-04-11T13:41:08.114Z,11.73
2023-04-11T13:43:36.476Z,6.38
2023-04-11T13:46:04.760Z,8.25
2023-04-11T13:48:32.908Z,5.28
2023-04-11T13:51:00.983Z,6.75
2023-04-11T13:53:30.436Z,5.57
2023-04-11T13:55:58.537Z,6.47
2023-04-11T13:58:26.602Z,7.00
2023-04-11T14:00:54.920Z,5.95
2023-04-11T14:03:24.465Z,9.07
2023-04-11T14:05:52.678Z,8.05
2023-04-11T14:08:20.831Z,3.90
2023-04-11T14:10:50.322Z,4.18
2023-04-11T14:13:18.420Z,10.68
2023-04-11T14:15:49.682Z,6.53
2023-04-11T14:18:23.146Z,6.70
2023-04-11T14:20:51.267Z,6.22
2023-04-11T14:23:19.566Z,9.75
2023-04-11T14:25:49.054Z,7.20
2023-04-11T14:28:18.259Z,12.50
2023-04-11T14:30:46.686Z,6.80
2023-04-11T14:33:14.801Z,11.52
2023-04-11T14:35:47.001Z,74.22
2023-04-11T14:38:15.859Z,8.20
2023-04-11T14:40:45.075Z,6.72
2023-04-11T14:43:14.536Z,4.47
2023-04-11T14:45:42.671Z,9.75
2023-04-11T14:48:11.387Z,8.52
2023-04-11T14:50:39.460Z,4.10
2023-04-11T14:53:07.523Z,4.90
2023-04-11T14:55:35.640Z,12.70
2023-04-11T14:58:03.688Z,6.20
2023-04-11T15:00:33.146Z,4.97
2023-04-11T15:03:05.529Z,10.35
2023-04-11T15:05:33.892Z,6.88
2023-04-11T15:08:02.253Z,6.35
2023-04-11T15:10:31.974Z,8.93
2023-04-11T15:13:00.046Z,3.47
2023-04-11T15:15:28.154Z,4.80
2023-04-11T15:18:22.370Z,9.63
2023-04-11T15:20:50.862Z,8.80
2023-04-11T15:23:20.467Z,10.27
2023-04-11T15:25:48.747Z,7.43
2023-04-11T15:28:16.803Z,19.23
2023-04-11T15:30:49.136Z,12.15
2023-04-11T15:33:17.720Z,10.35
2023-04-11T15:35:47.547Z,10.70
2023-04-11T15:38:16.410Z,5.05
2023-04-11T15:40:44.679Z,6.47
2023-04-11T15:43:12.815Z,8.27
2023-04-11T15:45:44.342Z,6.13
2023-04-11T15:48:13.250Z,8.70
2023-04-11T15:50:41.596Z,6.55
2023-04-11T15:53:11.286Z,9.63
2023-04-11T15:55:40.069Z,11.10
2023-04-11T15:58:08.336Z,4.40
2023-04-11T16:00:36.693Z,6.00
2023-04-11T16:03:05.202Z,10.02
2023-04-11T16:05:33.870Z,7.43
2023-04-11T16:08:02.133Z,8.70
2023-04-11T16:10:31.732Z,5.90
2023-04-11T16:12:59.781Z,9.68
2023-04-11T16:15:27.858Z,11.27
2023-04-11T16:17:55.939Z,9.40
2023-04-11T16:20:24.322Z,10.93
2023-04-11T16:22:52.365Z,6.25
2023-04-11T16:25:21.445Z,7.93
2023-04-11T16:27:51.868Z,9.30
2023-04-11T16:30:20.762Z,7.05
2023-04-11T16:32:48.915Z,6.88
2023-04-11T16:35:17.045Z,8.15
2023-04-11T16:37:45.225Z,8.27
2023-04-11T16:40:14.013Z,10.23
2023-04-11T16:42:42.315Z,4.45
2023-04-11T16:45:12.129Z,5.60
2023-04-11T16:47:40.337Z,8.55
2023-04-11T16:50:09.294Z,7.15
2023-04-11T16:52:37.362Z,9.43
2023-04-11T16:55:06.013Z,6.53
2023-04-11T16:57:34.600Z,12.63
2023-04-11T17:00:11.721Z,6.28
2023-04-11T17:02:41.450Z,7.63
2023-04-11T17:05:10.459Z,13.65
2023-04-11T17:07:38.557Z,9.48
2023-04-11T17:10:07.731Z,8.30
2023-04-11T17:12:35.837Z,14.43
2023-04-11T17:15:04.043Z,9.82
2023-04-11T17:17:33.426Z,8.20
2023-04-11T17:20:09.554Z,8.95
2023-04-11T17:22:41.307Z,11.85
2023-04-11T17:25:10.604Z,11.73
2023-04-11T17:27:38.720Z,11.60
2023-04-11T17:30:08.210Z,10.82
2023-04-11T17:32:38.086Z,8.48
2023-04-11T17:35:08.486Z,6.20
2023-04-11T17:37:37.054Z,11.57
2023-04-11T17:40:11.210Z,11.02
2023-04-11T17:42:39.282Z,9.13
2023-04-11T17:45:17.915Z,12.00
2023-04-11T17:47:47.314Z,7.38
2023-04-11T17:50:17.380Z,8.63
2023-04-11T17:52:46.223Z,9.50
2023-04-11T17:55:15.601Z,11.07
2023-04-11T17:57:44.181Z,11.45
2023-04-11T18:00:19.907Z,11.38
2023-04-11T18:02:49.404Z,15.95
2023-04-11T18:05:24.569Z,10.27
2023-04-11T18:07:54.616Z,6.55
2023-04-11T18:10:23.064Z,5.57
2023-04-11T18:12:52.445Z,10.93
2023-04-11T18:15:20.919Z,8.30
2023-04-11T18:17:49.379Z,12.80
2023-04-11T18:20:19.371Z,9.43
2023-04-11T18:22:51.443Z,9.60
2023-04-11T18:25:19.604Z,8.02
2023-04-11T18:27:48.042Z,12.52
2023-04-11T18:30:17.186Z,8.23
2023-04-11T18:32:49.415Z,6.53
2023-04-11T18:35:19.903Z,7.78
2023-04-11T18:37:48.074Z,9.48
2023-04-11T18:40:17.086Z,5.35
2023-04-11T18:42:46.635Z,7.53
2023-04-11T18:45:15.636Z,8.35
2023-04-11T18:47:44.220Z,5.22
2023-04-11T18:50:12.641Z,5.80
2023-04-11T18:52:43.497Z,7.57
2023-04-11T18:55:12.804Z,8.43
2023-04-11T18:57:41.796Z,12.98
2023-04-11T19:00:17.596Z,10.02
2023-04-11T19:02:47.765Z,7.30
2023-04-11T19:05:17.895Z,12.43
2023-04-11T19:07:47.472Z,7.80
2023-04-11T19:10:15.772Z,8.38
2023-04-11T19:12:43.865Z,10.70
2023-04-11T19:15:13.274Z,10.15
2023-04-11T19:17:41.440Z,7.15
2023-04-11T19:20:12.990Z,10.77
2023-04-11T19:22:41.878Z,12.27
2023-04-11T19:25:12.609Z,10.27
2023-04-11T19:27:41.985Z,14.98
2023-04-11T19:30:13.569Z,9.98
2023-04-11T19:32:43.695Z,13.30
2023-04-11T19:35:12.642Z,12.52
2023-04-11T19:37:41.109Z,13.40
2023-04-11T19:40:13.647Z,11.07
2023-04-11T19:42:42.017Z,11.90
2023-04-11T19:45:11.546Z,10.70
2023-04-11T19:47:40.834Z,8.55
2023-04-11T19:50:13.231Z,7.80
2023-04-11T19:52:42.020Z,9.70
2023-04-11T19:55:12.604Z,8.18
2023-04-11T19:57:41.202Z,17.05
2023-04-11T20:00:12.476Z,18.10
2023-04-11T20:02:45.287Z,14.75
2023-04-11T20:05:14.455Z,20.98
2023-04-11T20:07:43.989Z,21.95
2023-04-11T20:10:14.274Z,18.83
2023-04-11T20:12:42.573Z,25.10
2023-04-11T20:15:11.507Z,15.60
2023-04-11T20:17:39.681Z,12.63
2023-04-11T20:20:11.391Z,8.90
2023-04-11T20:22:40.509Z,12.57
2023-04-11T20:25:11.709Z,9.43
2023-04-11T20:27:41.984Z,14.10
2023-04-11T20:30:11.089Z,12.80
2023-04-11T20:32:39.858Z,13.27
2023-04-11T20:35:08.731Z,15.57
2023-04-11T20:37:37.139Z,16.02
2023-04-11T20:40:08.057Z,13.68
2023-04-11T20:42:40.002Z,13.45
2023-04-11T20:45:11.394Z,7.72
2023-04-11T20:47:39.803Z,17.33
2023-04-11T20:50:10.438Z,9.13
2023-04-11T20:52:41.185Z,15.45
2023-04-11T20:55:10.711Z,13.98
2023-04-11T20:57:38.829Z,16.65
2023-04-11T21:00:14.084Z,9.63
2023-04-11T21:02:44.275Z,11.50
2023-04-11T21:05:13.044Z,17.08
2023-04-11T21:07:42.114Z,11.98
2023-04-11T21:10:12.153Z,9.48
2023-04-11T21:12:40.845Z,18.58
2023-04-11T21:15:11.909Z,9.98
2023-04-11T21:17:40.555Z,11.05
2023-04-11T21:20:17.940Z,11.35
2023-04-11T21:22:46.819Z,16.20
2023-04-11T21:25:15.850Z,9.07
2023-04-11T21:27:44.086Z,11.88
2023-04-11T21:30:15.118Z,11.93
2023-04-11T21:32:43.763Z,12.77
2023-04-11T21:35:12.843Z,9.45
2023-04-11T21:37:41.015Z,14.05
2023-04-11T21:40:10.034Z,12.82
2023-04-11T21:42:39.176Z,12.73
2023-04-11T21:45:08.782Z,12.93
2023-04-11T21:47:38.526Z,18.35
2023-04-11T21:50:07.702Z,13.23
2023-04-11T21:52:35.781Z,18.50
2023-04-11T21:55:06.430Z,13.45
2023-04-11T21:57:36.183Z,12.07
2023-04-11T22:00:05.764Z,16.05
2023-04-11T22:02:33.965Z,15.55
2023-04-11T22:05:07.161Z,15.23
2023-04-11T22:07:39.452Z,12.82
2023-04-11T22:10:12.000Z,13.80
2023-04-11T22:12:41.788Z,11.88
2023-04-11T22:15:12.673Z,8.95
2023-04-11T22:17:42.349Z,19.95
2023-04-11T22:20:13.244Z,12.23
2023-04-11T22:22:42.128Z,9.75
2023-04-11T22:25:11.534Z,11.63
2023-04-11T22:27:39.806Z,11.77
2023-04-11T22:30:09.712Z,11.18
2023-04-11T22:32:38.153Z,10.93
2023-04-11T22:35:08.273Z,13.60
2023-04-11T22:37:37.802Z,13.13
2023-04-11T22:40:07.130Z,14.05
2023-04-11T22:42:35.762Z,12.32
2023-04-11T22:45:04.102Z,8.48
2023-04-11T22:47:34.391Z,9.85
2023-04-11T22:50:03.696Z,14.30
2023-04-11T22:52:31.892Z,8.82
2023-04-11T22:55:01.393Z,14.40
2023-04-11T22:57:29.498Z,8.40
2023-04-11T22:59:59.378Z,9.43
2023-04-11T23:02:31.560Z,9.45
2023-04-11T23:05:00.023Z,10.35
2023-04-11T23:07:28.413Z,13.15
2023-04-11T23:10:00.987Z,17.40
2023-04-11T23:12:30.666Z,11.48
2023-04-11T23:15:02.430Z,8.48
2023-04-11T23:17:30.874Z,8.88
2023-04-11T23:19:59.660Z,15.98
2023-04-11T23:22:28.364Z,11.73
2023-04-11T23:24:56.435Z,9.38
2023-04-11T23:27:24.549Z,10.23
2023-04-11T23:29:54.320Z,13.15
2023-04-11T23:32:23.241Z,11.10
2023-04-11T23:34:51.405Z,11.30
2023-04-11T23:37:19.482Z,10.50
2023-04-11T23:39:47.597Z,12.65
2023-04-11T23:42:15.705Z,12.68
2023-04-11T23:44:43.754Z,13.75
2023-04-11T23:47:13.238Z,7.00
2023-04-11T23:49:41.320Z,19.45
2023-04-11T23:52:11.143Z,29.05
2023-04-11T23:54:39.344Z,11.75
2023-04-11T23:57:07.496Z,13.15
2023-04-11T23:59:36.126Z,12.05
